Bodrum, Turkey

1:10 PM EEST on September 01, 2015 (GMT +0300)
Culture Vulture's House | | Change Station
CLOSE
Current Station
Personal Weather Station
Location: Gumusluk, Mugla
Elevation: 52 ft
Nearby Weather Stations

Elev 52 ft 37.05 °N, 27.25 °E | Updated 11 seconds ago

Clear
Clear
84.2 °F
Feels Like 92 °F
N
4.5
Wind Variable Wind from NE
Gusts 6.0 mph

Today
High -- | Low -- °F
--% Chance of Precip.
Yesterday
High -- | Low -- °F
Precip. -- in
6:40 AM 7:39 PM
Waning Gibbous, 90% visible
Pressure 29.86 in
Visibility -9999.0 miles
Clouds
Heat Index 92 °F
Dew Point 74 °F
Humidity 72%
Rainfall 0.00 in
Snow Depth Not available.
UV Not available.
Pollen Not available.
Air Quality Not available.
Flu Activity Not available.
METAR LTFE 010950Z 29011KT CAVOK 33/16 Q1011 NOSIG
Pressure 29.86 in
Visibility -9999.0 miles
Clouds
Heat Index 92 °F
Dew Point 74 °F
Humidity 72%
Rainfall 0.00 in
Snow Depth Not available.
UV Not available.
Pollen Not available.
Air Quality Not available.
Flu Activity Not available.
METAR LTFE 010950Z 29011KT CAVOK 33/16 Q1011 NOSIG

10-Day Weather Forecast

×

Almanac

Astronomy

Sep. 01, 2015 Rise Set
Actual Time
Civil Twilight
Nautical Twilight
Astronomical Twilight
Moon
Length of Visible Light
Length of Day
Tomorrow will be .
, % of the Moon is Illuminated

Today's Extremes

Country Highs Country Lows

Community

WunderPhotos

Upload Photos

1,851,501 photos uploaded!

WunderBlogs® & News

Nearby

Air Quality

  Air Quality AQ Index Pollutant
Not available.

Snow Depth

Station Depth Elevation

Earthquake Activity

City Distance Mag. Time & Date
Minimum magnitude displayed is 2.5.

Coastal Water Temperatures

Place Temperature

Stations

Nearby Weather Stations

Station Location Temp. Windchill Dew Point Humidity Wind Precip. Elev Updated Type